Time;durP1;ratioP1;P1;durP2;ratioP2;P2;SDS_P1;SDS_P2;PMS_P1;PMS_P2;Temp;Humidity;BMP_temperature;BMP_pressure;BME280_temperature;BME280_humidity;BME280_pressure;Samples;Min_cycle;Max_cycle;Signal;HPM_P1;HPM_P2
2022/05/21 00:01:42;;;;;;;9.68;6.03;;;;;;;23.74;52.51;99118.13;5084704;28;20056;-74
2022/05/21 00:04:10;;;;;;;6.93;5.43;;;;;;;23.76;52.01;99146.69;5084559;28;20165;-75
2022/05/21 00:06:38;;;;;;;8.38;5.05;;;;;;;23.74;52.57;99158.69;5084377;28;20052;-74
2022/05/21 00:09:06;;;;;;;7.43;5.80;;;;;;;23.71;53.05;99184.25;5084577;28;20174;-74
2022/05/21 00:11:33;;;;;;;13.10;7.07;;;;;;;23.51;54.83;99193.75;5084603;28;20060;-75
2022/05/21 00:14:00;;;;;;;9.60;6.25;;;;;;;23.27;55.26;99171.13;5086617;28;20064;-74
2022/05/21 00:16:29;;;;;;;6.15;4.10;;;;;;;23.13;56.49;99176.34;5088121;28;20078;-74
2022/05/21 00:18:57;;;;;;;9.43;5.20;;;;;;;23.19;56.04;99175.66;5087787;28;20248;-74
2022/05/21 00:21:24;;;;;;;11.38;6.65;;;;;;;22.99;56.36;99123.81;5087835;28;20048;-75
2022/05/21 00:23:52;;;;;;;10.35;8.98;;;;;;;23.12;56.72;99164.69;5087999;28;20057;-74
2022/05/21 00:26:20;;;;;;;9.38;6.88;;;;;;;23.08;56.53;99167.88;5087912;28;20110;-74
2022/05/21 00:28:49;;;;;;;11.02;5.43;;;;;;;20.97;57.37;98882.13;5087834;28;20056;-74
2022/05/21 00:31:19;;;;;;;7.45;5.20;;;;;;;22.82;58.94;99186.94;5087192;28;20087;-75
2022/05/21 00:33:48;;;;;;;6.03;4.10;;;;;;;22.74;58.99;99206.69;5087869;28;20121;-74
2022/05/21 00:36:16;;;;;;;5.28;4.22;;;;;;;22.58;57.65;99231.81;5087814;28;20056;-74
2022/05/21 00:38:44;;;;;;;4.00;3.22;;;;;;;22.14;58.87;99184.31;5087742;28;20052;-75
2022/05/21 00:41:14;;;;;;;7.40;3.42;;;;;;;22.21;59.32;99240.19;5087809;28;20106;-74
2022/05/21 00:43:47;;;;;;;4.60;2.92;;;;;;;22.15;59.83;99234.59;5087845;28;20110;-75
2022/05/21 00:46:17;;;;;;;5.90;4.37;;;;;;;21.86;59.54;99184.53;5087424;28;20064;-74
2022/05/21 00:48:54;;;;;;;5.40;4.00;;;;;;;22.02;58.96;99206.19;5086285;28;20524;-74
2022/05/21 00:51:25;;;;;;;5.78;4.43;;;;;;;21.74;59.83;99139.94;5087457;28;20056;-75
2022/05/21 00:53:55;;;;;;;6.20;3.90;;;;;;;21.90;59.90;99136.50;5087487;28;20057;-75
2022/05/21 00:56:25;;;;;;;5.72;3.22;;;;;;;20.95;60.33;98989.19;5087301;28;20197;-74
2022/05/21 01:01:44;;;;;;;6.60;4.43;;;;;;;21.72;61.28;99118.50;5087289;28;20090;-74
2022/05/21 01:04:12;;;;;;;4.88;3.08;;;;;;;21.66;61.37;99119.16;5087005;28;20060;-74
2022/05/21 01:06:39;;;;;;;5.32;3.47;;;;;;;21.77;60.84;99113.47;5087201;28;20053;-74
2022/05/21 01:09:08;;;;;;;4.20;3.10;;;;;;;21.88;60.34;99125.03;5086994;28;20250;-74
2022/05/21 01:11:37;;;;;;;5.03;3.17;;;;;;;21.91;61.15;99130.94;5087046;28;20359;-74
2022/05/21 01:14:06;;;;;;;10.32;9.23;;;;;;;21.70;60.65;99098.09;5086996;28;20252;-74
2022/05/21 01:16:33;;;;;;;14.63;8.88;;;;;;;21.97;60.80;99115.97;5086766;28;20049;-74
2022/05/21 01:19:05;;;;;;;13.20;9.63;;;;;;;21.99;62.34;99132.81;5086652;28;20182;-74
2022/05/21 01:21:36;;;;;;;11.10;7.30;;;;;;;22.01;60.84;99130.81;5086937;28;20313;-74
2022/05/21 01:24:06;;;;;;;13.10;11.27;;;;;;;22.00;62.36;99132.66;5086638;28;20263;-74
2022/05/21 01:26:35;;;;;;;12.60;9.65;;;;;;;21.77;61.29;99088.34;5086138;28;20056;-75
2022/05/21 01:29:04;;;;;;;15.52;11.48;;;;;;;21.96;61.99;99119.66;5086450;28;20059;-74
2022/05/21 01:31:32;;;;;;;9.52;7.00;;;;;;;21.88;62.58;99119.63;5085550;28;20125;-74
2022/05/21 01:34:00;;;;;;;7.75;4.32;;;;;;;21.78;61.90;99117.88;5086654;28;20106;-74
2022/05/21 01:36:28;;;;;;;9.48;3.97;;;;;;;21.75;62.42;99102.00;5086373;28;20105;-74
2022/05/21 01:38:55;;;;;;;5.75;3.45;;;;;;;21.74;62.05;99092.22;5086574;28;20059;-74
2022/05/21 01:41:24;;;;;;;6.47;3.47;;;;;;;21.75;61.87;99083.13;5086220;28;20056;-74
2022/05/21 01:46:38;;;;;;;5.75;3.53;;;;;;;21.72;61.77;99074.50;5086386;28;20062;-74
2022/05/21 01:49:05;;;;;;;6.95;4.47;;;;;;;21.73;61.35;99063.56;5085028;28;20347;-74
2022/05/21 01:51:32;;;;;;;4.95;3.47;;;;;;;21.04;61.77;98951.38;5086296;28;20056;-74
2022/05/21 01:53:59;;;;;;;12.05;4.32;;;;;;;21.74;61.99;99051.78;5085866;28;20056;-74
2022/05/21 01:56:28;;;;;;;5.55;4.18;;;;;;;21.42;62.71;99016.59;5085310;28;20060;-74
2022/05/21 01:58:55;;;;;;;6.28;3.72;;;;;;;21.68;61.81;99059.66;5085890;28;20102;-74
2022/05/21 02:01:24;;;;;;;6.95;3.55;;;;;;;20.19;62.85;98853.41;5086092;28;20074;-74
2022/05/21 02:03:51;;;;;;;9.90;4.05;;;;;;;21.48;63.41;99053.69;5086068;28;20075;-74
2022/05/21 02:06:18;;;;;;;6.10;3.28;;;;;;;21.58;62.33;99050.84;5086073;28;20056;-74
2022/05/21 02:08:46;;;;;;;5.85;3.85;;;;;;;21.65;62.10;99041.13;5086001;28;20170;-75
2022/05/21 02:11:13;;;;;;;5.38;3.75;;;;;;;21.66;62.03;99048.19;5085694;28;20052;-74
2022/05/21 02:13:43;;;;;;;8.48;4.25;;;;;;;21.62;62.48;99057.63;5085631;28;20368;-74
2022/05/21 02:16:10;;;;;;;4.88;4.00;;;;;;;21.62;62.18;99055.78;5085854;28;20060;-74
2022/05/21 02:18:37;;;;;;;5.82;4.03;;;;;;;21.51;62.60;99058.75;5085826;28;20114;-74
2022/05/21 02:21:07;;;;;;;8.25;4.10;;;;;;;21.25;63.08;99007.56;5085792;28;20324;-75
2022/05/21 02:23:35;;;;;;;6.07;3.85;;;;;;;21.43;63.45;99035.28;5085708;28;20052;-74
2022/05/21 02:26:02;;;;;;;11.80;4.97;;;;;;;21.44;63.55;99036.97;5085641;28;20040;-74
2022/05/21 02:28:30;;;;;;;6.57;3.65;;;;;;;21.37;63.79;99035.94;5085123;28;20052;-74
2022/05/21 02:30:59;;;;;;;6.47;3.80;;;;;;;21.29;64.42;99040.44;5085355;28;20078;-74
2022/05/21 02:33:27;;;;;;;6.40;4.05;;;;;;;21.27;63.38;99047.84;5085622;28;20053;-74
2022/05/21 02:35:54;;;;;;;7.18;3.53;;;;;;;21.27;64.65;99047.84;5085146;28;20052;-75
2022/05/21 02:41:10;;;;;;;7.20;4.00;;;;;;;21.14;65.80;99067.97;5085514;28;20301;-74
2022/05/21 02:43:37;;;;;;;7.13;3.90;;;;;;;21.02;66.15;99079.16;5085280;28;20064;-75
2022/05/21 02:46:09;;;;;;;4.70;3.53;;;;;;;21.00;66.01;99114.31;5085096;28;20052;-75
2022/05/21 02:48:37;;;;;;;11.00;4.18;;;;;;;19.83;65.20;98952.09;5085602;28;20041;-74
2022/05/21 02:51:05;;;;;;;4.55;3.15;;;;;;;21.23;64.75;99173.97;5085216;28;20048;-74
2022/05/21 02:53:33;;;;;;;7.00;4.07;;;;;;;21.35;64.84;99186.19;5085629;28;20040;-74
2022/05/21 02:56:04;;;;;;;5.18;3.45;;;;;;;21.37;65.83;99218.41;5085129;28;20197;-74
2022/05/21 02:58:32;;;;;;;7.20;3.83;;;;;;;21.46;64.55;99241.72;5085176;28;20061;-74
2022/05/21 03:00:59;;;;;;;5.03;3.15;;;;;;;21.34;64.74;99214.16;5085358;28;20243;-74
2022/05/21 03:03:28;;;;;;;5.10;3.45;;;;;;;21.23;65.18;99221.66;5085014;28;20056;-74
2022/05/21 03:05:56;;;;;;;9.40;4.30;;;;;;;21.08;64.90;99222.19;5085290;28;20189;-75
2022/05/21 03:11:07;;;;;;;5.53;3.30;;;;;;;20.82;64.95;99203.22;5085252;28;20090;-74
2022/05/21 03:13:35;;;;;;;4.80;3.50;;;;;;;20.79;65.06;99187.38;5085292;28;20312;-74
2022/05/21 03:16:02;;;;;;;6.18;2.83;;;;;;;20.44;65.36;99157.72;5084713;28;20106;-74
2022/05/21 03:18:31;;;;;;;3.45;2.50;;;;;;;20.69;65.52;99197.38;5084881;28;20064;-74
2022/05/21 03:20:58;;;;;;;5.53;2.47;;;;;;;20.58;64.95;99192.22;5084317;28;20082;-74
2022/05/21 03:23:25;;;;;;;3.65;2.30;;;;;;;20.57;64.83;99217.44;5085118;28;20057;-74
2022/05/21 03:25:53;;;;;;;5.45;2.90;;;;;;;20.53;64.89;99205.28;5084928;28;20170;-74
2022/05/21 03:28:21;;;;;;;3.47;2.67;;;;;;;20.09;65.17;99137.81;5085051;28;20053;-74
2022/05/21 03:30:49;;;;;;;9.52;2.80;;;;;;;20.41;65.56;99177.72;5084699;28;20064;-74
2022/05/21 03:33:17;;;;;;;5.75;3.80;;;;;;;20.39;65.10;99173.50;5085013;28;20243;-74
2022/05/21 03:35:47;;;;;;;3.60;2.50;;;;;;;20.35;65.62;99172.94;5084729;28;20113;-74
2022/05/21 03:38:15;;;;;;;4.40;2.63;;;;;;;20.38;65.28;99180.72;5085024;28;20106;-74
2022/05/21 03:40:42;;;;;;;7.32;2.67;;;;;;;20.39;66.05;99176.19;5084996;28;20378;-74
2022/05/21 03:43:09;;;;;;;5.43;2.35;;;;;;;20.44;65.18;99179.28;5084713;28;20064;-74
2022/05/21 03:45:36;;;;;;;4.82;2.85;;;;;;;20.42;65.48;99181.25;5085031;28;20056;-74
2022/05/21 03:48:05;;;;;;;4.68;2.63;;;;;;;20.09;65.50;99127.03;5084584;28;20056;-74
2022/05/21 03:50:33;;;;;;;4.22;2.63;;;;;;;20.38;66.11;99174.50;5088666;28;20255;-74
2022/05/21 03:53:03;;;;;;;3.60;2.42;;;;;;;20.39;65.84;99163.56;5088656;28;20056;-74
2022/05/21 03:55:31;;;;;;;4.03;2.92;;;;;;;20.36;65.43;99149.56;5088587;28;20041;-74
2022/05/21 03:57:58;;;;;;;4.45;2.20;;;;;;;20.32;65.79;99151.72;5088536;28;20040;-74
2022/05/21 04:00:26;;;;;;;4.75;2.80;;;;;;;19.55;65.39;99018.47;5088503;28;20219;-74
2022/05/21 04:02:53;;;;;;;5.07;2.50;;;;;;;20.07;64.74;99104.81;5088477;28;20045;-74
2022/05/21 04:05:21;;;;;;;3.85;2.28;;;;;;;20.30;64.79;99156.41;5088460;28;20106;-74
2022/05/21 04:07:48;;;;;;;5.15;2.50;;;;;;;20.29;64.83;99149.34;5088067;28;20056;-74
2022/05/21 04:10:18;;;;;;;4.43;2.45;;;;;;;20.33;65.32;99163.34;5088064;28;20109;-74
2022/05/21 04:12:45;;;;;;;6.18;3.10;;;;;;;20.29;65.25;99161.94;5087907;28;20052;-74
2022/05/21 04:15:13;;;;;;;5.93;3.25;;;;;;;20.27;65.61;99154.03;5088160;28;20056;-74
2022/05/21 04:17:40;;;;;;;4.93;3.00;;;;;;;20.21;65.44;99154.59;5088085;28;20074;-74
2022/05/21 04:20:11;;;;;;;4.05;2.75;;;;;;;19.98;66.02;99124.56;5088136;28;20053;-74
2022/05/21 04:22:39;;;;;;;6.13;2.92;;;;;;;20.25;65.74;99165.94;5088297;28;20060;-74
2022/05/21 04:25:07;;;;;;;5.45;2.72;;;;;;;19.94;65.52;99120.47;5088084;28;20312;-74
2022/05/21 04:27:38;;;;;;;5.18;2.97;;;;;;;20.21;65.78;99181.50;5087787;28;20064;-74
2022/05/21 04:30:09;;;;;;;5.93;3.10;;;;;;;20.20;66.67;99182.50;5087606;28;20057;-74
2022/05/21 04:32:36;;;;;;;5.57;3.63;;;;;;;20.16;65.75;99178.41;5088020;28;20240;-75
2022/05/21 04:35:04;;;;;;;7.07;3.15;;;;;;;20.16;66.00;99181.09;5087918;28;20083;-74
2022/05/21 04:37:31;;;;;;;4.75;3.30;;;;;;;20.13;66.13;99192.16;5086804;28;20113;-74
2022/05/21 04:39:58;;;;;;;6.45;2.83;;;;;;;20.08;65.63;99200.69;5087492;28;20083;-74
2022/05/21 04:42:26;;;;;;;5.50;2.60;;;;;;;15.47;65.78;98431.72;5086775;28;20328;-74
2022/05/21 04:44:54;;;;;;;5.97;3.05;;;;;;;20.02;66.31;99171.69;5087462;28;20102;-74
2022/05/21 04:47:22;;;;;;;6.47;3.15;;;;;;;20.03;65.75;99194.03;5087692;28;20109;-74
2022/05/21 04:49:49;;;;;;;4.13;2.88;;;;;;;19.99;66.17;99188.13;5087515;28;20102;-74
2022/05/21 04:52:16;;;;;;;8.18;3.22;;;;;;;19.19;65.94;99057.78;5086405;28;20056;-74
2022/05/21 04:54:43;;;;;;;7.75;3.58;;;;;;;19.93;66.15;99186.03;5087139;28;20247;-74
2022/05/21 04:57:11;;;;;;;4.03;2.83;;;;;;;19.95;66.07;99196.63;5087373;28;20057;-74
2022/05/21 04:59:38;;;;;;;5.70;3.15;;;;;;;19.94;66.38;99187.72;5085343;28;20048;-74
2022/05/21 05:02:06;;;;;;;4.30;3.17;;;;;;;19.90;66.77;99172.88;5087275;28;20040;-74
2022/05/21 05:04:34;;;;;;;5.47;3.10;;;;;;;19.89;66.09;99195.38;5087242;28;20082;-74
2022/05/21 05:07:07;;;;;;;6.05;3.65;;;;;;;14.67;67.34;98329.38;5087185;28;20378;-74
2022/05/21 05:09:39;;;;;;;7.15;3.13;;;;;;;19.82;67.36;99192.44;5086848;28;20068;-75
2022/05/21 05:12:08;;;;;;;6.47;3.65;;;;;;;19.83;66.25;99193.28;5087154;28;20082;-74
2022/05/21 05:14:35;;;;;;;6.07;3.42;;;;;;;19.59;66.70;99179.47;5087086;28;20056;-74
2022/05/21 05:17:03;;;;;;;5.90;4.18;;;;;;;19.87;66.30;99210.81;5087001;28;20094;-75
2022/05/21 05:19:33;;;;;;;7.90;3.55;;;;;;;19.59;66.76;99172.25;5086992;28;20063;-74
2022/05/21 05:22:00;;;;;;;6.53;3.80;;;;;;;19.86;67.37;99206.44;5086749;28;20056;-74
2022/05/21 05:24:27;;;;;;;4.80;3.67;;;;;;;19.88;66.68;99209.81;5086820;28;20113;-74
2022/05/21 05:26:54;;;;;;;6.07;3.85;;;;;;;19.86;66.87;99203.75;5086767;28;20060;-74
2022/05/21 05:29:21;;;;;;;10.48;3.97;;;;;;;19.57;66.62;99170.69;5086417;28;20078;-75
2022/05/21 05:31:48;;;;;;;4.65;3.63;;;;;;;19.85;66.80;99215.50;5086750;28;20056;-74
2022/05/21 05:34:16;;;;;;;6.38;3.42;;;;;;;19.88;66.56;99222.41;5086606;28;20109;-74
2022/05/21 05:36:47;;;;;;;7.43;4.00;;;;;;;19.86;67.16;99238.69;5086586;28;20060;-74
2022/05/21 05:39:16;;;;;;;8.13;4.40;;;;;;;18.96;67.07;99077.06;5086554;28;20064;-74
2022/05/21 05:41:43;;;;;;;9.27;4.13;;;;;;;19.67;66.71;99188.50;5086184;28;20060;-74
2022/05/21 05:44:10;;;;;;;6.45;4.05;;;;;;;19.02;66.85;99088.06;5086182;28;20056;-74
2022/05/21 05:46:38;;;;;;;6.20;4.15;;;;;;;19.97;66.13;99213.47;5086128;28;20106;-74
2022/05/21 05:49:05;;;;;;;7.70;4.30;;;;;;;18.78;66.46;99034.84;5086350;28;20113;-74
2022/05/21 05:51:33;;;;;;;5.20;3.88;;;;;;;19.77;66.67;99191.16;5086193;28;20186;-74
2022/05/21 05:54:02;;;;;;;5.70;3.80;;;;;;;20.02;66.45;99230.00;5085929;28;20060;-74
2022/05/21 05:56:30;;;;;;;5.88;3.92;;;;;;;20.02;66.65;99212.03;5085984;28;20052;-74
2022/05/21 06:01:43;;;;;;;8.40;5.15;;;;;;;20.04;66.99;99207.34;5086294;28;20087;-74
2022/05/21 06:04:10;;;;;;;7.57;4.35;;;;;;;20.13;66.24;99227.97;5085772;28;20064;-74
2022/05/21 06:06:38;;;;;;;5.00;4.18;;;;;;;20.15;66.63;99211.69;5085959;28;20220;-74
2022/05/21 06:09:07;;;;;;;6.35;4.05;;;;;;;19.49;66.71;99121.22;5085906;28;20094;-74
2022/05/21 06:11:37;;;;;;;6.18;4.00;;;;;;;20.18;66.32;99222.16;5085622;28;20178;-74
2022/05/21 06:14:05;;;;;;;9.88;4.07;;;;;;;20.16;66.56;99225.00;5084776;28;20056;-74
2022/05/21 06:16:33;;;;;;;7.85;4.65;;;;;;;20.20;66.53;99233.63;5085790;28;20106;-74
2022/05/21 06:19:00;;;;;;;6.35;4.30;;;;;;;20.22;66.25;99226.28;5085722;28;20102;-74
2022/05/21 06:21:28;;;;;;;6.82;4.28;;;;;;;19.20;66.96;99055.94;5085480;28;20056;-74
2022/05/21 06:23:55;;;;;;;6.43;4.50;;;;;;;20.30;66.39;99225.53;5085599;28;20319;-74
2022/05/21 06:26:24;;;;;;;7.13;4.47;;;;;;;20.33;66.32;99226.06;5085668;28;20102;-74
2022/05/21 06:28:51;;;;;;;5.80;3.90;;;;;;;18.44;65.86;98896.75;5085605;28;20060;-74
2022/05/21 06:31:19;;;;;;;5.65;3.67;;;;;;;20.41;65.71;99225.31;5085056;28;20270;-74
2022/05/21 06:33:46;;;;;;;10.80;4.00;;;;;;;20.43;66.09;99239.47;5085230;28;20061;-74
2022/05/21 06:36:15;;;;;;;10.35;3.95;;;;;;;20.25;65.57;99204.44;5085238;28;20056;-74
2022/05/21 06:38:44;;;;;;;4.50;3.75;;;;;;;20.28;65.08;99203.31;5085243;28;20102;-74
2022/05/21 06:41:12;;;;;;;6.65;4.85;;;;;;;20.55;65.14;99251.75;5085379;28;20052;-74
2022/05/21 06:43:41;;;;;;;5.82;3.85;;;;;;;19.72;65.36;99097.47;5084483;28;20048;-74
2022/05/21 06:46:09;;;;;;;8.05;4.25;;;;;;;20.65;64.96;99259.75;5085847;28;20094;-74
2022/05/21 06:48:36;;;;;;;6.45;3.70;;;;;;;20.65;64.84;99252.53;5085411;28;20040;-74
2022/05/21 06:51:05;;;;;;;6.70;4.32;;;;;;;20.69;64.75;99248.53;5085041;28;20351;-74
2022/05/21 06:53:33;;;;;;;8.43;4.97;;;;;;;20.75;64.51;99264.09;5085349;28;20060;-74
2022/05/21 06:56:00;;;;;;;8.60;4.72;;;;;;;20.80;64.54;99272.56;5085375;28;20317;-74
2022/05/21 06:58:28;;;;;;;7.00;4.47;;;;;;;20.85;64.48;99264.03;5085001;28;20064;-74
2022/05/21 07:00:56;;;;;;;4.97;3.28;;;;;;;20.93;64.04;99268.66;5085120;28;20106;-74
2022/05/21 07:03:23;;;;;;;7.55;4.30;;;;;;;20.96;63.70;99258.41;5085083;28;20056;-74
2022/05/21 07:08:50;;;;;;;6.55;3.63;;;;;;;21.03;63.40;99277.53;5084515;28;20053;-74
2022/05/21 07:11:18;;;;;;;9.50;4.05;;;;;;;21.08;62.85;99281.47;5084999;28;20067;-74
2022/05/21 07:13:45;;;;;;;5.00;3.47;;;;;;;21.22;62.17;99273.84;5084997;28;20040;-74
2022/05/21 07:16:14;;;;;;;6.88;3.83;;;;;;;20.47;61.82;99152.03;5083733;28;20051;-74
2022/05/21 07:18:41;;;;;;;6.45;5.03;;;;;;;21.41;61.50;99269.16;5085361;28;20048;-74
2022/05/21 07:21:10;;;;;;;12.88;5.55;;;;;;;21.53;61.21;99277.00;5085122;28;20333;-74
2022/05/21 07:23:38;;;;;;;5.35;3.70;;;;;;;21.57;60.17;99295.41;5086628;28;20060;-74
2022/05/21 07:26:05;;;;;;;7.38;3.97;;;;;;;21.62;59.76;99286.84;5089019;28;20052;-74
2022/05/21 07:28:32;;;;;;;8.13;4.35;;;;;;;21.64;59.82;99284.84;5088887;28;20044;-75
2022/05/21 07:30:59;;;;;;;6.90;3.50;;;;;;;21.71;59.47;99289.44;5088584;28;20052;-74
2022/05/21 07:33:28;;;;;;;5.95;3.67;;;;;;;21.80;59.51;99293.06;5087580;28;20056;-74
2022/05/21 07:35:55;;;;;;;4.10;3.55;;;;;;;21.92;59.28;99269.38;5089028;28;20057;-74
2022/05/21 07:38:22;;;;;;;6.35;3.97;;;;;;;22.05;58.91;99278.75;5089072;28;20110;-74
2022/05/21 07:40:51;;;;;;;6.85;5.30;;;;;;;22.21;58.84;99275.28;5088896;28;20048;-74
2022/05/21 07:43:20;;;;;;;5.20;3.75;;;;;;;22.26;56.94;99270.25;5088519;28;20118;-74
2022/05/21 07:45:48;;;;;;;5.57;3.92;;;;;;;22.36;57.36;99284.47;5088486;28;20097;-74
2022/05/21 07:48:18;;;;;;;5.00;3.20;;;;;;;22.51;56.94;99267.69;5088689;28;20056;-74
2022/05/21 07:50:49;;;;;;;4.88;3.45;;;;;;;22.65;56.93;99273.34;5088592;28;20251;-74
2022/05/21 07:53:19;;;;;;;6.68;3.85;;;;;;;22.76;55.97;99272.22;5088596;28;20045;-74
2022/05/21 07:55:48;;;;;;;7.53;3.88;;;;;;;22.89;55.93;99279.84;5088427;28;20146;-74
2022/05/21 07:58:16;;;;;;;6.97;3.58;;;;;;;21.27;55.58;99002.88;5088008;28;20098;-74
2022/05/21 08:00:45;;;;;;;6.97;3.90;;;;;;;23.03;54.72;99253.03;5088406;28;20320;-74
2022/05/21 08:03:13;;;;;;;5.38;3.30;;;;;;;23.26;53.85;99274.00;5088396;28;20052;-74
2022/05/21 08:05:43;;;;;;;4.97;3.30;;;;;;;23.25;53.08;99281.25;5087919;28;20053;-74
2022/05/21 08:08:12;;;;;;;5.00;3.72;;;;;;;23.27;53.91;99276.56;5088164;28;20235;-74
2022/05/21 08:10:41;;;;;;;6.28;3.58;;;;;;;23.36;53.06;99272.00;5088186;28;20110;-74
2022/05/21 08:13:10;;;;;;;4.75;3.58;;;;;;;23.55;52.38;99290.59;5088138;28;20105;-74
2022/05/21 08:15:39;;;;;;;4.65;3.28;;;;;;;23.57;51.55;99275.06;5088054;28;20052;-74
2022/05/21 08:18:07;;;;;;;5.50;2.85;;;;;;;23.31;52.37;99202.22;5088084;28;20259;-74
2022/05/21 08:20:35;;;;;;;6.65;3.95;;;;;;;23.86;51.74;99268.25;5087685;28;20056;-74
2022/05/21 08:28:34;;;;;;;5.57;3.30;;;;;;;23.94;51.13;99271.81;5087847;28;20090;-75
2022/05/21 08:31:03;;;;;;;5.85;3.45;;;;;;;23.83;51.78;99266.75;5087589;28;20057;-74
2022/05/21 08:33:31;;;;;;;4.53;2.90;;;;;;;23.02;51.43;99118.06;5086957;28;20060;-74
2022/05/21 08:35:59;;;;;;;5.03;2.83;;;;;;;23.67;50.78;99223.47;5087689;28;20259;-74
2022/05/21 08:38:26;;;;;;;5.43;3.65;;;;;;;24.04;51.15;99263.53;5087848;28;20053;-74
2022/05/21 08:40:58;;;;;;;4.60;3.20;;;;;;;24.23;49.68;99262.28;5087709;28;20060;-74
2022/05/21 08:43:36;;;;;;;4.28;3.17;;;;;;;24.29;48.71;99267.00;5087616;28;20112;-74
2022/05/21 08:46:15;;;;;;;4.88;3.00;;;;;;;24.29;47.26;99258.88;5087605;28;20259;-74
2022/05/21 08:48:51;;;;;;;5.70;2.85;;;;;;;23.75;47.78;99176.63;5087493;28;20060;-74
2022/05/21 08:51:20;;;;;;;4.90;2.70;;;;;;;24.47;47.86;99259.50;5087032;28;20052;-74
2022/05/21 08:53:52;;;;;;;5.07;2.70;;;;;;;24.27;46.27;99226.56;5087217;28;20081;-74
2022/05/21 08:56:21;;;;;;;4.28;2.55;;;;;;;24.47;46.60;99253.22;5087630;28;20074;-74
2022/05/21 08:58:53;;;;;;;4.43;2.60;;;;;;;24.29;47.82;99259.72;5087252;28;20052;-74
2022/05/21 09:01:22;;;;;;;6.50;3.20;;;;;;;24.19;48.31;99250.97;5086997;28;20060;-74
2022/05/21 09:03:52;;;;;;;4.20;2.92;;;;;;;23.59;48.80;99174.78;5087165;28;20270;-75
2022/05/21 09:06:33;;;;;;;5.30;2.65;;;;;;;24.09;46.68;99247.59;5086983;28;20110;-75
2022/05/21 09:09:12;;;;;;;6.25;2.83;;;;;;;24.11;47.48;99250.13;5087298;28;20119;-74
2022/05/21 09:11:47;;;;;;;3.70;2.70;;;;;;;23.99;48.23;99247.81;5086765;28;20060;-74
2022/05/21 09:14:16;;;;;;;4.30;2.97;;;;;;;23.74;49.30;99180.34;5086761;28;20056;-74
2022/05/21 09:16:57;;;;;;;5.95;2.88;;;;;;;24.39;48.57;99248.69;5087601;28;20052;-74
2022/05/21 09:19:26;;;;;;;3.38;2.70;;;;;;;24.72;47.90;99240.44;5086639;28;20098;-74
2022/05/21 09:21:58;;;;;;;6.22;3.75;;;;;;;24.93;47.65;99230.66;5086883;28;20090;-75
2022/05/21 09:24:43;;;;;;;7.68;3.22;;;;;;;25.04;45.37;99229.44;5085825;28;20147;-74
2022/05/21 09:27:30;;;;;;;5.55;3.30;;;;;;;24.89;44.59;99220.34;5086572;28;20103;-74
2022/05/21 09:30:15;;;;;;;4.38;3.33;;;;;;;24.43;43.06;99121.88;5086376;28;20304;-74
2022/05/21 09:32:46;;;;;;;3.50;2.47;;;;;;;24.57;44.81;99170.72;5086552;28;20083;-74
2022/05/21 09:35:16;;;;;;;4.38;2.90;;;;;;;23.89;46.23;99087.44;5086729;28;20114;-74
2022/05/21 09:37:44;;;;;;;6.45;2.78;;;;;;;24.84;45.49;99239.00;5085548;28;20056;-75
2022/05/21 09:40:30;;;;;;;4.00;2.90;;;;;;;23.86;42.66;99103.19;5086239;28;20106;-74
2022/05/21 09:45:46;;;;;;;4.32;2.47;;;;;;;25.05;44.80;99208.56;5085819;28;20227;-74
2022/05/21 09:48:19;;;;;;;3.90;2.70;;;;;;;25.09;43.25;99213.47;5085981;28;20056;-75
2022/05/21 09:50:51;;;;;;;4.47;2.80;;;;;;;25.00;42.11;99240.78;5086369;28;20053;-74
2022/05/21 09:53:27;;;;;;;5.78;2.40;;;;;;;25.07;41.29;99218.22;5086134;28;20263;-74
2022/05/21 09:55:59;;;;;;;3.53;2.10;;;;;;;24.31;41.88;99042.91;5086227;28;20243;-75
2022/05/21 09:58:29;;;;;;;3.88;2.40;;;;;;;25.34;41.83;99224.16;5085729;28;20036;-74
2022/05/21 10:00:57;;;;;;;3.40;2.10;;;;;;;24.47;42.65;99101.53;5085925;28;20117;-74
2022/05/21 10:03:38;;;;;;;3.03;2.22;;;;;;;25.09;39.44;99231.59;5085930;28;20414;-75
2022/05/21 10:06:17;;;;;;;3.55;2.22;;;;;;;24.88;39.81;99215.94;5085532;28;20056;-75
2022/05/21 10:11:40;;;;;;;3.33;2.15;;;;;;;24.68;39.81;99248.09;5085806;28;20182;-75
2022/05/21 10:14:16;;;;;;;6.00;2.40;;;;;;;24.28;39.38;99154.28;5085688;28;20064;-75
2022/05/21 10:16:53;;;;;;;3.75;2.25;;;;;;;24.83;40.27;99215.63;5085858;28;20043;-74
2022/05/21 10:19:30;;;;;;;4.72;2.63;;;;;;;24.64;40.08;99187.09;5085779;28;20052;-74
2022/05/21 10:22:11;;;;;;;4.32;2.38;;;;;;;24.90;40.24;99249.13;5085928;28;20350;-74
2022/05/21 10:24:51;;;;;;;3.97;2.92;;;;;;;24.93;38.82;99229.81;5085321;28;20162;-75
2022/05/21 10:27:34;;;;;;;5.85;2.30;;;;;;;25.00;39.51;99229.94;5085782;28;20114;-75
2022/05/21 10:30:08;;;;;;;3.97;2.20;;;;;;;24.84;38.48;99220.03;5085192;28;20122;-75
2022/05/21 10:33:02;;;;;;;9.02;2.35;;;;;;;24.87;37.69;99244.91;5085128;28;20186;-75
2022/05/21 10:35:50;;;;;;;4.07;2.08;;;;;;;24.75;38.03;99235.50;5085238;28;20102;-75
2022/05/21 10:38:42;;;;;;;3.55;2.35;;;;;;;24.77;38.25;99255.16;5085403;28;20125;-74
2022/05/21 10:41:25;;;;;;;5.90;2.42;;;;;;;24.79;38.70;99254.97;5082604;28;20359;-75
2022/05/21 10:44:02;;;;;;;2.90;2.03;;;;;;;24.81;38.54;99258.34;5085291;28;20114;-76
2022/05/21 10:46:44;;;;;;;4.63;2.10;;;;;;;24.84;39.35;99244.44;5085503;28;20071;-76
2022/05/21 10:49:37;;;;;;;4.40;2.25;;;;;;;24.97;38.99;99223.00;5085470;28;20056;-75
2022/05/21 10:52:15;;;;;;;4.20;2.25;;;;;;;25.08;39.05;99230.75;5085580;28;20334;-79
2022/05/21 10:54:57;;;;;;;3.17;1.95;;;;;;;25.18;39.10;99227.81;5085401;28;20056;-76
2022/05/21 10:57:41;;;;;;;7.15;2.40;;;;;;;25.04;38.67;99191.47;5084105;28;20064;-76
2022/05/21 11:00:14;;;;;;;2.80;2.10;;;;;;;25.35;38.82;99223.97;5085287;28;20110;-76
2022/05/21 11:03:17;;;;;;;3.78;2.15;;;;;;;25.53;37.61;99231.78;5085289;28;20060;-76
2022/05/21 11:06:16;;;;;;;3.40;2.38;;;;;;;25.38;37.29;99220.03;5085063;28;20339;-76
2022/05/21 11:08:52;;;;;;;4.03;2.28;;;;;;;25.07;38.31;99187.56;5064352;28;20060;-77
2022/05/21 11:11:30;;;;;;;4.38;2.35;;;;;;;25.32;37.48;99210.78;5085158;28;20056;-77
2022/05/21 11:14:04;;;;;;;4.93;2.53;;;;;;;25.37;37.54;99221.06;5085022;28;20052;-76
2022/05/21 11:16:41;;;;;;;6.40;2.45;;;;;;;25.10;36.83;99190.75;5085188;28;20110;-76
2022/05/21 11:19:15;;;;;;;4.35;2.22;;;;;;;25.32;36.94;99212.59;5084111;28;20054;-76
2022/05/21 11:21:47;;;;;;;;;;;;;;;25.22;35.83;99239.97;5085342;28;20063;-76
2022/05/21 11:24:19;;;;;;;4.15;2.17;;;;;;;25.13;36.75;99238.34;5088010;28;19924;-79
2022/05/21 11:26:50;;;;;;;3.55;2.53;;;;;;;25.11;37.12;99211.41;5084409;28;20114;-78
2022/05/21 11:29:26;;;;;;;3.97;2.53;;;;;;;25.15;36.63;99204.59;5084502;28;20123;-78
2022/05/21 11:37:34;;;;;;;3.65;2.22;;;;;;;25.13;36.71;99227.50;5084849;28;20044;-76
2022/05/21 11:40:02;;;;;;;4.07;2.08;;;;;;;25.18;37.63;99215.09;5084529;28;20060;-77
2022/05/21 11:42:32;;;;;;;3.33;2.00;;;;;;;24.89;36.09;99183.25;5084779;28;20113;-77
2022/05/21 11:45:15;;;;;;;3.50;1.92;;;;;;;25.06;35.22;99210.28;5085247;28;20060;-78
2022/05/21 11:47:52;;;;;;;2.75;1.88;;;;;;;25.07;35.37;99211.94;5086919;28;20059;-79
2022/05/21 11:50:26;;;;;;;3.40;1.88;;;;;;;25.16;35.58;99206.28;5085631;28;20090;-79
2022/05/21 11:53:26;;;;;;;3.55;2.05;;;;;;;24.67;35.42;99129.03;5084276;28;20057;-79
2022/05/21 11:56:06;;;;;;;4.25;2.55;;;;;;;25.35;35.65;99210.41;5087301;28;20052;-79
2022/05/21 11:59:24;;;;;;;6.47;2.47;;;;;;;25.39;35.11;99208.16;5084585;28;20067;-79
2022/05/21 12:02:18;;;;;;;6.32;2.25;;;;;;;25.17;34.82;99209.84;5084485;28;20056;-75
2022/05/21 12:04:55;;;;;;;3.05;1.83;;;;;;;25.31;35.29;99198.19;5084660;28;20170;-75
2022/05/21 12:07:50;;;;;;;4.10;2.15;;;;;;;25.41;35.12;99203.41;5084292;28;20060;-74
2022/05/21 12:10:21;;;;;;;;;;;;;;;25.37;34.41;99200.22;5087016;28;20114;-74
2022/05/21 12:13:16;;;;;;;3.13;1.77;;;;;;;25.10;33.83;99147.34;5087967;28;19917;-75
2022/05/21 12:15:45;;;;;;;;;;;;;;;25.28;33.51;99188.56;5088459;28;20064;-76
2022/05/21 12:18:41;;;;;;;3.42;2.28;;;;;;;25.38;34.05;99185.63;5088354;28;19916;-76
2022/05/21 12:21:13;;;;;;;2.70;1.63;;;;;;;25.41;35.58;99190.69;5088244;28;20101;-76
2022/05/21 12:24:06;;;;;;;4.47;2.10;;;;;;;25.41;33.66;99209.66;5087869;28;20082;-76
2022/05/21 12:26:37;;;;;;;6.85;2.03;;;;;;;25.46;35.55;99211.84;5087577;28;20110;-77